Leting, China
Current Conditions -  °F | °C
As of 3:00 PM on Sunday 23 Nov 2014 (Local Time) from ZBTJ Reporting Station
Haze Haze  
Wind Chill: 44°   Ceiling: 4000
Heat Index: 48°   Visibility: 1.2mi
Dew Point: 39°   Wind: 9mph
Humidity: 71%   Direction: 350°N
Pressure: 30.24"   Gusts: NA
Location:  39.43°N, 118.9°E
Report Text: ZBTJ 230700Z 35004MPS 2000 HZ OVC040 09/04 Q1024 NOSIG
Loading
Personal Weather Stations






























Interactive Weather Map New forecast layout! Learn more

10-Day Weather Forecast

Advertisements
Track Severe Weather on mobile